Time;durP1;ratioP1;P1;durP2;ratioP2;P2;SDS_P1;SDS_P2;PMS_P1;PMS_P2;Temp;Humidity;BMP_temperature;BMP_pressure;BME280_temperature;BME280_humidity;BME280_pressure;Samples;Min_cycle;Max_cycle;Signal;HPM_P1;HPM_P2
2023/03/22 00:00:12;;;;;;;;;8.00;6.25;;;;;13.25;58.39;100801.44;5018845;28;45234;-59
2023/03/22 00:02:37;;;;;;;;;8.00;7.00;;;;;13.21;58.39;100800.63;5019033;28;45455;-59
2023/03/22 00:05:04;;;;;;;;;9.25;9.25;;;;;13.19;58.33;100794.50;5018409;28;45328;-58
2023/03/22 00:07:30;;;;;;;;;8.25;8.00;;;;;13.18;58.03;100798.03;5033451;28;45383;-58
2023/03/22 00:09:55;;;;;;;;;10.50;9.50;;;;;13.13;58.19;100785.00;5018713;28;45272;-58
2023/03/22 00:12:20;;;;;;;;;9.50;8.50;;;;;13.15;58.28;100798.13;5018825;28;50544;-58
2023/03/22 00:14:47;;;;;;;;;10.25;9.00;;;;;13.12;58.23;100790.31;5018973;28;45505;-58
2023/03/22 00:17:12;;;;;;;;;5.25;5.25;;;;;13.11;58.78;100793.84;5019036;28;45277;-58
2023/03/22 00:19:40;;;;;;;;;7.50;7.50;;;;;13.07;58.33;100782.50;5018784;28;45217;-58
2023/03/22 00:22:07;;;;;;;;;9.00;8.75;;;;;13.08;58.21;100799.19;5018956;28;45513;-58
2023/03/22 00:24:33;;;;;;;;;8.00;8.00;;;;;13.06;58.13;100774.63;5018338;28;47239;-58
2023/03/22 00:26:59;;;;;;;;;7.75;6.25;;;;;13.05;58.22;100773.75;5018785;28;45280;-58
2023/03/22 00:29:24;;;;;;;;;8.25;7.75;;;;;13.01;58.55;100766.81;5018712;28;45240;-58
2023/03/22 00:31:50;;;;;;;;;11.50;9.50;;;;;12.99;58.41;100769.50;5018793;28;45558;-59
2023/03/22 00:34:16;;;;;;;;;8.00;7.25;;;;;12.98;58.08;100761.59;5018724;28;47066;-58
2023/03/22 00:36:41;;;;;;;;;7.50;5.25;;;;;12.96;58.25;100759.00;5018647;28;45322;-58
2023/03/22 00:39:07;;;;;;;;;9.75;9.00;;;;;12.94;58.07;100754.66;5033841;28;45324;-58
2023/03/22 00:41:32;;;;;;;;;10.00;7.50;;;;;12.87;58.29;100756.59;5016863;28;45518;-58
2023/03/22 00:43:58;;;;;;;;;7.00;6.75;;;;;12.90;58.16;100759.13;4998956;28;47225;-58
2023/03/22 00:46:24;;;;;;;;;5.50;5.00;;;;;12.88;57.94;100745.13;5018928;28;45575;-58
2023/03/22 00:48:50;;;;;;;;;7.25;6.00;;;;;12.86;57.87;100744.28;5018392;27;45317;-59
2023/03/22 00:51:15;;;;;;;;;5.25;5.25;;;;;12.84;58.06;100748.72;5018650;28;45480;-58
2023/03/22 00:53:41;;;;;;;;;6.00;6.00;;;;;12.78;58.05;100743.59;5018278;28;45969;-58
2023/03/22 00:56:07;;;;;;;;;8.25;6.00;;;;;12.77;57.75;100739.25;4996538;28;45325;-58
2023/03/22 00:58:32;;;;;;;;;6.00;6.00;;;;;12.75;58.06;100738.41;5000785;28;45466;-58
2023/03/22 01:00:58;;;;;;;;;6.25;6.00;;;;;12.71;58.29;100739.38;5018297;28;45519;-58
2023/03/22 01:03:23;;;;;;;;;6.75;6.75;;;;;12.71;57.81;100742.88;5018018;28;45323;-58
2023/03/22 01:05:54;;;;;;;;;8.75;6.00;;;;;12.66;57.88;100742.97;5018374;28;45348;-58
2023/03/22 01:08:20;;;;;;;;;10.75;7.00;;;;;12.62;57.96;100743.09;5017933;28;45298;-58
2023/03/22 01:10:45;;;;;;;;;7.00;7.00;;;;;12.60;57.95;100729.06;5016471;28;45398;-58
2023/03/22 01:13:11;;;;;;;;;7.25;6.00;;;;;12.57;57.97;100729.16;5017820;28;46156;-60
2023/03/22 01:15:36;;;;;;;;;8.50;6.00;;;;;12.50;58.01;100723.13;5017997;28;45365;-60
2023/03/22 01:18:03;;;;;;;;;5.00;5.00;;;;;12.47;58.21;100728.50;5017826;28;45497;-61
2023/03/22 01:20:29;;;;;;;;;6.50;5.75;;;;;12.46;58.19;100721.47;5018079;28;45403;-60
2023/03/22 01:22:54;;;;;;;;;7.50;5.50;;;;;12.47;58.76;100717.94;5017693;28;45248;-60
2023/03/22 01:25:20;;;;;;;;;6.00;5.00;;;;;12.42;58.36;100710.13;5017697;28;45262;-60
2023/03/22 01:27:45;;;;;;;;;4.75;4.00;;;;;12.39;58.20;100704.06;5016566;28;45478;-61
2023/03/22 01:30:11;;;;;;;;;6.00;5.00;;;;;12.32;58.07;100690.16;5015816;28;45351;-60
2023/03/22 01:32:37;;;;;;;;;7.25;6.25;;;;;12.34;58.14;100691.03;5015291;28;47018;-60
2023/03/22 01:35:04;;;;;;;;;5.00;4.00;;;;;12.31;58.37;100691.94;5017941;28;45576;-60
2023/03/22 01:37:31;;;;;;;;;6.00;5.00;;;;;12.30;58.35;100690.22;5015425;28;45695;-60
2023/03/22 01:39:56;;;;;;;;;4.75;3.75;;;;;12.30;58.35;100681.41;5017565;28;45409;-62
2023/03/22 01:42:23;;;;;;;;;4.25;3.00;;;;;12.26;58.39;100677.97;5009597;28;46266;-61
2023/03/22 01:45:13;;;;;;;;;5.25;4.00;;;;;12.23;58.13;100675.44;5016907;28;45366;-60
2023/03/22 01:47:50;;;;;;;;;5.75;5.25;;;;;12.22;58.28;100675.47;5017658;28;45228;-60
2023/03/22 01:50:17;;;;;;;;;6.00;3.75;;;;;12.21;58.39;100668.47;5017907;28;45496;-60
2023/03/22 01:52:43;;;;;;;;;7.00;5.00;;;;;12.16;58.31;100672.06;5017778;28;45350;-60
2023/03/22 01:55:09;;;;;;;;;3.00;3.00;;;;;12.14;58.28;100673.00;5008014;28;45412;-60
2023/03/22 01:57:36;;;;;;;;;4.75;4.75;;;;;12.11;58.28;100667.78;5005846;28;45300;-61
2023/03/22 02:00:07;;;;;;;;;3.50;3.25;;;;;12.06;58.34;100653.84;5017542;28;45426;-60
2023/03/22 02:02:33;;;;;;;;;3.25;3.25;;;;;12.08;58.49;100667.88;5016493;28;48145;-60
2023/03/22 02:05:00;;;;;;;;;8.25;4.00;;;;;12.05;58.53;100657.38;5017654;28;45317;-58
2023/03/22 02:07:26;;;;;;;;;7.00;4.00;;;;;12.05;58.38;100654.75;5017924;28;45268;-58
2023/03/22 02:09:52;;;;;;;;;3.25;2.75;;;;;12.03;58.49;100642.47;5017155;28;45173;-58
2023/03/22 02:12:36;;;;;;;;;4.75;3.00;;;;;12.00;58.37;100631.16;5017584;28;45574;-58
2023/03/22 02:15:18;;;;;;;;;5.50;3.00;;;;;12.00;58.32;100636.44;5017439;28;45378;-58
2023/03/22 02:17:58;;;;;;;;;4.00;4.00;;;;;12.00;58.32;100626.75;5017657;28;45382;-60
2023/03/22 02:20:41;;;;;;;;;6.00;2.75;;;;;11.96;58.47;100621.59;5017616;28;45467;-60
2023/03/22 02:23:46;;;;;;;;;5.00;3.50;;;;;11.94;58.41;100623.38;5017147;28;45299;-58
2023/03/22 02:26:35;;;;;;;;;5.00;2.00;;;;;11.91;58.55;100613.78;5017255;28;45296;-58
2023/03/22 02:29:18;;;;;;;;;4.25;3.00;;;;;11.89;58.76;100612.06;5015685;28;45488;-59
2023/03/22 02:31:49;;;;;;;;;5.00;3.50;;;;;11.87;58.63;100606.81;5017249;28;45214;-58
2023/03/22 02:34:32;;;;;;;;;4.00;4.00;;;;;11.83;58.71;100610.41;5017102;28;46329;-58
2023/03/22 02:37:06;;;;;;;;;4.75;2.75;;;;;11.83;58.62;100611.28;5017355;28;45345;-58
2023/03/22 02:39:44;;;;;;;;;5.75;3.50;;;;;11.80;58.88;100619.25;5016861;28;45375;-60
2023/03/22 02:42:34;;;;;;;;;4.75;3.75;;;;;11.80;58.82;100618.41;5010351;28;45472;-60
2023/03/22 02:44:59;;;;;;;;;4.00;4.00;;;;;11.77;58.90;100613.19;5008345;28;46343;-60
2023/03/22 02:47:34;;;;;;;;;4.50;2.00;;;;;11.76;58.83;100611.44;5015384;28;45333;-60
2023/03/22 02:50:27;;;;;;;;;1.75;1.75;;;;;11.76;58.69;100611.44;5016218;28;45241;-60
2023/03/22 02:53:05;;;;;;;;;8.00;4.00;;;;;11.74;58.82;100608.00;5017063;28;45312;-60
2023/03/22 02:55:43;;;;;;;;;4.25;3.25;;;;;11.70;58.88;100613.31;5003038;28;46432;-60
2023/03/22 02:58:22;;;;;;;;;3.50;3.50;;;;;11.73;58.82;100629.94;5009942;28;45360;-60
2023/03/22 03:00:52;;;;;;;;;3.00;3.00;;;;;11.69;58.83;100619.47;5049364;28;45281;-60
2023/03/22 03:03:19;;;;;;;;;5.50;4.50;;;;;11.68;58.80;100614.25;5016728;28;45312;-60
2023/03/22 03:05:50;;;;;;;;;6.75;4.50;;;;;11.68;58.86;100623.03;5016875;28;47192;-60
2023/03/22 03:08:17;;;;;;;;;5.75;2.75;;;;;11.67;58.95;100626.56;5016611;28;45306;-61
2023/03/22 03:10:43;;;;;;;;;6.75;4.50;;;;;11.66;58.80;100613.41;5016570;28;45311;-60
2023/03/22 03:13:11;;;;;;;;;4.75;1.00;;;;;11.62;58.97;100617.88;5016744;28;45215;-60
2023/03/22 03:15:41;;;;;;;;;7.25;2.50;;;;;11.63;58.96;100606.44;5016594;28;46308;-60
2023/03/22 03:18:28;;;;;;;;;5.50;3.00;;;;;11.61;58.97;100621.41;5016404;28;45397;-60
2023/03/22 03:21:15;;;;;;;;;4.25;2.75;;;;;11.61;59.18;100631.06;5016672;28;45555;-60
2023/03/22 03:23:41;;;;;;;;;4.75;3.75;;;;;11.59;59.30;100635.50;5016478;28;45218;-60
2023/03/22 03:26:06;;;;;;;;;5.00;3.25;;;;;11.58;59.08;100623.22;5016405;28;45176;-60
2023/03/22 03:28:43;;;;;;;;;4.25;3.00;;;;;11.54;59.13;100632.94;5016520;28;45221;-60
2023/03/22 03:31:09;;;;;;;;;2.50;2.50;;;;;11.52;59.34;100617.19;5016809;28;45524;-60
2023/03/22 03:33:40;;;;;;;;;2.75;2.75;;;;;11.51;59.09;100611.97;5014773;28;45410;-60
2023/03/22 03:36:11;;;;;;;;;4.00;4.00;;;;;11.53;58.97;100618.94;5016266;28;46458;-60
2023/03/22 03:38:42;;;;;;;;;6.00;3.00;;;;;11.49;59.21;100614.59;5014663;28;45305;-60
2023/03/22 03:41:15;;;;;;;;;4.75;3.00;;;;;11.48;59.36;100625.19;5017444;28;45311;-61
2023/03/22 03:43:42;;;;;;;;;2.00;2.00;;;;;11.50;59.24;100615.50;5001033;28;45425;-60
2023/03/22 03:46:08;;;;;;;;;7.00;5.25;;;;;11.48;59.39;100619.91;5006315;28;45221;-60
2023/03/22 03:48:36;;;;;;;;;3.00;3.00;;;;;11.48;59.26;100619.91;5019164;28;45507;-60
2023/03/22 03:51:02;;;;;;;;;5.00;3.00;;;;;11.48;59.29;100612.00;5035039;28;45311;-61
2023/03/22 03:53:28;;;;;;;;;3.75;1.50;;;;;11.48;59.31;100610.28;5019081;28;45307;-60
2023/03/22 03:55:54;;;;;;;;;3.75;2.25;;;;;11.48;59.32;100610.28;5003555;28;46366;-60
2023/03/22 03:58:19;;;;;;;;;2.25;1.25;;;;;11.49;59.32;100614.59;5013089;28;45224;-60
2023/03/22 04:00:46;;;;;;;;;4.25;2.75;;;;;11.43;59.33;100608.63;5019497;28;45218;-60
2023/03/22 04:03:12;;;;;;;;;5.00;3.25;;;;;11.52;59.23;100613.69;5019153;28;45437;-60
2023/03/22 04:05:37;;;;;;;;;2.75;2.75;;;;;11.52;59.26;100606.66;5019214;28;45150;-61
2023/03/22 04:08:04;;;;;;;;;2.00;2.00;;;;;11.52;59.27;100611.94;5019009;28;45217;-61
2023/03/22 04:10:29;;;;;;;;;5.75;4.00;;;;;11.52;59.26;100606.66;5019136;28;45660;-60
2023/03/22 04:12:54;;;;;;;;;3.25;2.50;;;;;11.51;59.45;100604.94;5018861;28;45481;-58
2023/03/22 04:15:20;;;;;;;;;4.00;3.00;;;;;11.57;59.30;100613.59;5019318;28;46241;-58
2023/03/22 04:17:45;;;;;;;;;0.25;0.25;;;;;11.55;59.48;100611.84;5018905;28;45269;-58
2023/03/22 04:20:12;;;;;;;;;2.00;2.00;;;;;11.57;59.43;100610.97;5018967;28;45608;-58
2023/03/22 04:22:39;;;;;;;;;3.25;2.00;;;;;11.61;59.50;100625.78;5018937;28;45505;-61
2023/03/22 04:25:10;;;;;;;;;4.50;3.00;;;;;11.60;59.40;100603.03;5017302;28;47236;-60
2023/03/22 04:27:39;;;;;;;;;4.50;3.25;;;;;11.58;59.40;100592.50;5018700;28;45455;-61
2023/03/22 04:30:09;;;;;;;;;3.50;2.00;;;;;11.64;59.48;100608.16;5015810;28;45464;-60
2023/03/22 04:32:34;;;;;;;;;3.75;1.00;;;;;11.66;59.41;100608.13;5018489;28;45565;-60
2023/03/22 04:35:00;;;;;;;;;2.75;2.25;;;;;11.64;59.43;100605.53;5018537;28;46251;-60
2023/03/22 04:37:30;;;;;;;;;3.50;1.00;;;;;11.64;59.46;100609.94;5017957;28;57876;-61
2023/03/22 04:39:56;;;;;;;;;2.75;1.00;;;;;11.66;59.02;100603.75;5018566;28;45332;-60
2023/03/22 04:42:21;;;;;;;;;0.00;0.00;;;;;11.67;59.56;100591.44;5009805;28;45439;-61
2023/03/22 04:44:46;;;;;;;;;3.00;1.00;;;;;11.66;59.38;100590.59;5010866;28;45444;-60
2023/03/22 04:47:12;;;;;;;;;2.00;1.75;;;;;11.69;59.58;100592.28;5017083;28;45420;-60
2023/03/22 04:49:37;;;;;;;;;2.00;2.00;;;;;11.69;59.52;100587.03;5016704;28;47047;-60
2023/03/22 04:52:03;;;;;;;;;4.50;2.75;;;;;11.66;59.45;100582.69;5018241;28;45394;-60
2023/03/22 04:54:28;;;;;;;;;1.50;1.50;;;;;11.70;59.45;100579.09;5013997;28;46156;-61
2023/03/22 04:56:53;;;;;;;;;1.50;1.50;;;;;11.72;59.44;100579.06;5000390;28;45161;-60
2023/03/22 04:59:19;;;;;;;;;5.00;3.00;;;;;11.71;59.50;100580.81;5011863;28;45290;-60
2023/03/22 05:01:49;;;;;;;;;3.00;2.00;;;;;11.73;59.41;100580.78;5012626;27;45588;-61
2023/03/22 05:04:18;;;;;;;;;3.50;2.00;;;;;11.69;59.59;100574.72;5016669;28;46328;-61
2023/03/22 05:06:44;;;;;;;;;3.75;1.25;;;;;11.76;59.34;100586.00;5016727;28;45393;-60
2023/03/22 05:09:10;;;;;;;;;3.50;2.00;;;;;11.75;59.43;100591.28;5015594;28;45476;-60
2023/03/22 05:11:36;;;;;;;;;5.00;3.25;;;;;11.74;59.42;100581.69;5018064;28;45607;-60
2023/03/22 05:14:02;;;;;;;;;5.75;3.75;;;;;11.71;59.40;100578.19;5018405;28;45255;-61
2023/03/22 05:16:28;;;;;;;;;6.25;3.00;;;;;11.73;59.41;100577.31;5018310;28;45271;-61
2023/03/22 05:18:53;;;;;;;;;3.75;3.00;;;;;11.68;59.51;100573.00;5033652;28;45453;-60
2023/03/22 05:21:21;;;;;;;;;4.00;4.00;;;;;11.74;59.61;100579.91;5018333;28;45477;-60
2023/03/22 05:23:48;;;;;;;;;4.00;2.75;;;;;11.71;59.56;100580.81;5018286;28;46463;-60
2023/03/22 05:26:14;;;;;;;;;5.00;3.75;;;;;11.72;59.42;100579.06;5017947;28;45246;-61
2023/03/22 05:28:41;;;;;;;;;2.50;2.25;;;;;11.70;59.59;100584.34;5018228;28;45354;-61
2023/03/22 05:31:08;;;;;;;;;4.50;3.00;;;;;11.72;59.53;100594.84;5018077;28;45326;-60
2023/03/22 05:33:34;;;;;;;;;1.75;0.25;;;;;11.70;59.80;100592.25;5018399;28;45381;-60
2023/03/22 05:36:00;;;;;;;;;7.25;4.50;;;;;11.69;59.65;100594.91;5017915;28;45238;-61
2023/03/22 05:38:26;;;;;;;;;4.25;3.75;;;;;11.71;59.56;100591.34;5016830;28;45292;-61
2023/03/22 05:40:52;;;;;;;;;4.75;2.25;;;;;11.70;59.53;100594.88;5017861;28;45472;-60
2023/03/22 05:43:17;;;;;;;;;5.75;5.00;;;;;11.71;59.30;100591.34;5017030;28;46321;-61
2023/03/22 05:45:44;;;;;;;;;7.00;5.00;;;;;11.73;59.56;100580.78;5014966;28;45202;-61
2023/03/22 05:48:10;;;;;;;;;5.50;3.75;;;;;11.75;59.56;100586.00;5017959;28;45472;-60
2023/03/22 05:50:36;;;;;;;;;6.00;4.50;;;;;11.75;59.70;100586.91;5017779;28;45521;-61
2023/03/22 05:53:02;;;;;;;;;6.75;5.00;;;;;11.73;59.73;100593.09;5017884;28;46099;-60
2023/03/22 05:55:30;;;;;;;;;5.25;5.00;;;;;11.74;59.51;100597.47;5005575;28;45276;-61
2023/03/22 05:57:56;;;;;;;;;5.75;4.50;;;;;11.74;59.91;100592.19;5007084;28;45323;-60
2023/03/22 06:00:22;;;;;;;;;3.75;3.75;;;;;11.71;59.83;100586.09;5017644;28;45169;-60
2023/03/22 06:02:51;;;;;;;;;6.50;4.25;;;;;11.71;59.71;100596.63;5016365;27;45310;-60
2023/03/22 06:05:17;;;;;;;;;7.25;5.50;;;;;11.74;59.58;100571.16;5016282;28;45283;-60
2023/03/22 06:07:43;;;;;;;;;4.00;4.00;;;;;11.73;59.80;100577.31;5017913;28;45390;-60
2023/03/22 06:10:11;;;;;;;;;8.00;5.75;;;;;11.71;59.79;100575.56;5017067;28;45283;-61
2023/03/22 06:12:37;;;;;;;;;7.25;5.50;;;;;11.68;59.78;100575.66;5017452;28;46892;-60
2023/03/22 06:15:03;;;;;;;;;7.00;5.75;;;;;11.70;59.66;100579.09;5017610;28;45448;-61
2023/03/22 06:17:29;;;;;;;;;6.75;5.00;;;;;11.70;59.81;100580.88;5017737;28;45131;-60
2023/03/22 06:19:55;;;;;;;;;9.50;5.75;;;;;11.74;59.62;100592.19;5017283;28;45496;-61
2023/03/22 06:22:21;;;;;;;;;4.75;4.75;;;;;11.70;59.84;100578.22;5017375;28;45248;-60
2023/03/22 06:24:48;;;;;;;;;7.00;5.00;;;;;11.70;59.86;100580.88;5017052;28;45317;-60
2023/03/22 06:27:13;;;;;;;;;8.50;5.25;;;;;11.70;59.87;100588.75;5017357;28;45518;-60
2023/03/22 06:29:39;;;;;;;;;5.25;4.25;;;;;11.70;59.98;100589.63;5017185;28;45461;-60
2023/03/22 06:32:05;;;;;;;;;7.25;4.75;;;;;11.72;59.74;100581.69;5016732;28;45306;-61
2023/03/22 06:34:31;;;;;;;;;6.00;5.00;;;;;11.73;59.84;100585.19;5017360;28;45294;-61
2023/03/22 06:36:56;;;;;;;;;5.25;5.00;;;;;11.69;59.78;100582.63;5032694;28;45235;-61
2023/03/22 06:39:22;;;;;;;;;4.00;4.00;;;;;11.72;59.53;100589.59;5016806;28;45620;-61
2023/03/22 06:41:48;;;;;;;;;7.25;5.75;;;;;11.70;59.87;100594.88;5013203;28;45362;-61
2023/03/22 06:44:14;;;;;;;;;8.25;6.00;;;;;11.75;59.93;100593.91;5002378;28;45484;-60
2023/03/22 06:46:39;;;;;;;;;6.75;5.25;;;;;11.71;59.89;100604.53;5017204;28;45416;-61
2023/03/22 06:49:05;;;;;;;;;4.50;3.75;;;;;11.72;59.92;100594.84;5016779;28;45212;-61
2023/03/22 06:51:31;;;;;;;;;6.00;4.75;;;;;11.72;59.98;100608.00;5016696;28;46007;-60
2023/03/22 06:53:56;;;;;;;;;6.25;3.75;;;;;11.72;60.24;100615.91;5016434;28;45280;-61
2023/03/22 06:56:22;;;;;;;;;4.00;4.00;;;;;11.74;59.91;100611.47;5006689;28;45398;-63
2023/03/22 06:58:48;;;;;;;;;7.00;5.25;;;;;11.75;59.99;100607.06;5016813;28;45344;-60
2023/03/22 07:01:13;;;;;;;;;5.00;5.00;;;;;11.77;60.12;100614.03;5016856;28;46583;-60
2023/03/22 07:03:39;;;;;;;;;7.00;5.00;;;;;11.77;60.27;100613.19;5016744;28;45313;-61
2023/03/22 07:06:07;;;;;;;;;3.25;3.00;;;;;11.79;59.92;100619.28;5016483;28;45418;-61
2023/03/22 07:08:33;;;;;;;;;4.75;4.50;;;;;11.78;60.09;100623.69;5016043;28;45507;-62
2023/03/22 07:10:59;;;;;;;;;8.00;5.00;;;;;11.79;60.09;100625.41;4997148;28;47140;-61
2023/03/22 07:13:24;;;;;;;;;4.00;4.00;;;;;11.81;59.76;100620.09;5010679;28;45548;-61
2023/03/22 07:15:55;;;;;;;;;6.25;4.50;;;;;11.81;59.98;100622.75;4996135;28;45452;-61
2023/03/22 07:18:20;;;;;;;;;6.50;5.50;;;;;11.82;60.11;100640.28;4998415;28;45296;-61
2023/03/22 07:20:45;;;;;;;;;8.00;6.00;;;;;11.83;59.95;100637.59;4998114;28;45399;-61
2023/03/22 07:23:11;;;;;;;;;5.75;5.00;;;;;11.85;60.11;100630.56;4997980;28;50507;-61
2023/03/22 07:25:36;;;;;;;;;4.00;4.00;;;;;11.83;59.98;100634.97;4998123;28;45399;-62
2023/03/22 07:28:02;;;;;;;;;6.25;5.50;;;;;11.85;59.99;100627.06;4998287;28;45454;-61
2023/03/22 07:30:27;;;;;;;;;6.25;4.75;;;;;11.85;60.34;100637.59;4983925;28;47008;-60
2023/03/22 07:32:52;;;;;;;;;7.75;5.00;;;;;11.88;60.03;100634.88;4999987;28;45291;-60
2023/03/22 07:35:18;;;;;;;;;8.00;6.25;;;;;11.87;59.87;100631.41;4998213;28;45286;-61
2023/03/22 07:37:44;;;;;;;;;5.50;5.50;;;;;11.87;59.97;100643.69;4997929;28;45214;-61
2023/03/22 07:40:10;;;;;;;;;7.00;6.00;;;;;11.90;60.20;100640.13;4996888;28;46441;-63
2023/03/22 07:42:36;;;;;;;;;7.50;7.00;;;;;11.87;60.15;100627.88;4996519;28;45367;-63
2023/03/22 07:45:02;;;;;;;;;8.00;6.50;;;;;11.87;60.24;100631.41;4998941;28;45304;-63
2023/03/22 07:47:27;;;;;;;;;8.25;7.50;;;;;11.83;59.72;100618.31;5016613;28;45516;-62
2023/03/22 07:49:53;;;;;;;;;8.00;8.00;;;;;11.92;60.22;100631.28;5018741;28;46220;-64
2023/03/22 07:52:18;;;;;;;;;7.00;5.00;;;;;11.94;60.28;100652.34;5018928;28;45314;-60
2023/03/22 07:54:43;;;;;;;;;6.25;5.50;;;;;11.92;60.33;100636.53;5012340;28;48825;-62
2023/03/22 07:57:09;;;;;;;;;8.25;4.75;;;;;11.93;60.13;100638.28;5017805;28;45557;-62
2023/03/22 07:59:34;;;;;;;;;5.00;5.00;;;;;11.99;60.08;100659.25;5017845;28;48313;-62
2023/03/22 08:02:00;;;;;;;;;5.75;5.00;;;;;11.98;60.14;100649.63;4992889;28;46396;-62
2023/03/22 08:04:26;;;;;;;;;6.25;5.00;;;;;11.99;60.15;100645.22;4993019;28;48054;-61
2023/03/22 08:06:53;;;;;;;;;5.25;5.25;;;;;12.00;60.26;100644.34;4983646;28;45482;-62
2023/03/22 08:09:19;;;;;;;;;7.50;5.50;;;;;12.07;60.05;100645.91;4980422;28;45489;-63
2023/03/22 08:11:44;;;;;;;;;8.00;6.75;;;;;12.06;60.14;100645.97;4995275;28;45336;-62
2023/03/22 08:14:10;;;;;;;;;8.75;6.50;;;;;12.06;60.38;100635.41;4994330;28;45443;-65
2023/03/22 08:16:35;;;;;;;;;7.25;6.00;;;;;12.09;60.39;100644.13;4992696;28;45484;-62
2023/03/22 08:19:00;;;;;;;;;5.75;4.50;;;;;12.09;60.22;100665.19;4995101;28;45444;-62
2023/03/22 08:21:26;;;;;;;;;4.75;3.75;;;;;12.05;60.27;100636.31;4993792;28;45556;-63
2023/03/22 08:23:51;;;;;;;;;6.75;4.75;;;;;12.14;60.23;100658.06;4992350;28;45472;-64
2023/03/22 08:26:17;;;;;;;;;7.25;4.25;;;;;12.09;60.13;100646.75;4992989;28;46477;-64
2023/03/22 08:28:43;;;;;;;;;9.00;5.75;;;;;12.16;60.41;100663.28;4990976;28;46513;-64
2023/03/22 08:31:13;;;;;;;;;6.00;6.00;;;;;12.18;59.88;100649.19;5013200;27;45477;-64
2023/03/22 08:33:38;;;;;;;;;4.75;4.50;;;;;12.14;59.74;100646.66;5016532;28;45335;-63
2023/03/22 08:36:10;;;;;;;;;6.25;5.00;;;;;12.24;60.25;100660.47;5017132;28;45457;-63
2023/03/22 08:38:35;;;;;;;;;3.75;3.75;;;;;12.27;60.39;100661.28;5017446;28;46397;-63
2023/03/22 08:41:01;;;;;;;;;6.00;4.50;;;;;12.29;60.46;100663.88;5017352;28;45401;-63
2023/03/22 08:43:27;;;;;;;;;4.00;4.00;;;;;12.28;60.45;100665.66;5013604;28;45467;-63
2023/03/22 08:45:53;;;;;;;;;7.50;6.00;;;;;12.28;60.21;100656.91;5015487;28;45223;-61
2023/03/22 08:48:18;;;;;;;;;7.25;5.50;;;;;12.28;60.29;100657.75;5018341;28;46251;-61
2023/03/22 08:50:43;;;;;;;;;6.25;6.25;;;;;12.32;60.32;100656.78;5018858;28;45161;-61
2023/03/22 08:53:10;;;;;;;;;8.50;6.00;;;;;12.33;60.34;100655.88;5017589;28;45189;-60
2023/03/22 08:55:35;;;;;;;;;6.50;6.00;;;;;12.35;60.09;100658.47;5016753;28;45800;-61
2023/03/22 08:58:02;;;;;;;;;8.00;5.25;;;;;12.38;60.34;100650.50;5018448;28;46158;-63
2023/03/22 09:00:27;;;;;;;;;7.25;4.75;;;;;12.39;60.25;100654.88;5018480;28;45324;-63
2023/03/22 09:02:53;;;;;;;;;6.75;5.25;;;;;12.38;60.34;100645.25;5018655;28;45317;-63
2023/03/22 09:05:18;;;;;;;;;6.25;6.25;;;;;12.42;60.39;100654.78;5018404;28;45518;-63
2023/03/22 09:07:44;;;;;;;;;8.00;6.75;;;;;12.44;60.33;100636.31;5018625;28;45376;-64
2023/03/22 09:10:10;;;;;;;;;7.50;6.00;;;;;12.47;60.34;100638.88;5018009;28;45247;-63
2023/03/22 09:12:36;;;;;;;;;7.00;5.75;;;;;12.44;60.42;100628.41;5018652;28;45223;-63
2023/03/22 09:15:03;;;;;;;;;6.75;4.75;;;;;12.43;60.47;100616.16;5018168;28;45251;-64
2023/03/22 09:17:28;;;;;;;;;8.50;5.75;;;;;12.46;60.86;100622.19;5018435;28;45262;-63
2023/03/22 09:19:53;;;;;;;;;6.75;5.25;;;;;12.42;60.55;100638.97;5018083;28;45266;-64
2023/03/22 09:22:19;;;;;;;;;7.00;7.00;;;;;12.50;60.59;100644.97;5018595;28;45258;-64
2023/03/22 09:24:44;;;;;;;;;9.25;7.25;;;;;12.47;60.95;100638.88;5032993;28;45228;-64
2023/03/22 09:27:09;;;;;;;;;7.25;5.75;;;;;12.39;60.60;100619.75;5018157;28;45948;-64
2023/03/22 09:29:35;;;;;;;;;7.25;6.00;;;;;12.43;61.07;100617.00;5017663;28;46785;-64
2023/03/22 09:32:00;;;;;;;;;7.25;6.75;;;;;12.45;60.88;100609.94;5018030;28;46692;-64
2023/03/22 09:34:26;;;;;;;;;6.25;3.25;;;;;12.40;60.68;100627.63;5013548;28;45302;-64
2023/03/22 09:36:52;;;;;;;;;8.25;7.00;;;;;12.40;61.07;100619.72;4998161;28;47331;-64
2023/03/22 09:39:17;;;;;;;;;8.00;6.00;;;;;12.39;61.15;100619.75;5030574;28;46080;-63
2023/03/22 09:41:54;;;;;;;;;5.25;4.75;;;;;12.35;60.91;100617.19;5014755;28;45250;-68
2023/03/22 09:44:28;;;;;;;;;6.75;5.50;;;;;12.33;60.86;100603.19;5002374;28;46770;-63
2023/03/22 09:46:58;;;;;;;;;10.00;7.25;;;;;12.40;61.04;100611.81;5017206;28;45397;-67
2023/03/22 09:49:29;;;;;;;;;6.25;6.25;;;;;12.31;61.09;100615.53;5017432;28;45297;-68
2023/03/22 09:51:55;;;;;;;;;9.50;7.25;;;;;12.31;61.31;100610.28;5017771;28;45535;-63
2023/03/22 09:54:30;;;;;;;;;5.75;5.00;;;;;12.29;61.15;100604.16;5013375;28;45521;-64
2023/03/22 09:57:03;;;;;;;;;6.00;5.00;;;;;12.21;61.18;100578.91;4999812;28;45309;-65
2023/03/22 09:59:56;;;;;;;;;7.75;7.75;;;;;12.25;61.19;100597.25;5017774;28;45324;-65
2023/03/22 10:02:56;;;;;;;;;4.50;4.50;;;;;12.22;61.32;100589.38;5018161;28;45368;-64
2023/03/22 10:05:34;;;;;;;;;10.25;6.50;;;;;12.20;61.31;100578.03;5016184;28;45292;-65
2023/03/22 10:08:11;;;;;;;;;9.75;5.50;;;;;12.19;61.47;100576.31;5017479;28;45494;-65
2023/03/22 10:10:40;;;;;;;;;6.75;5.75;;;;;12.19;61.31;100589.47;5017327;28;45317;-65
2023/03/22 10:13:41;;;;;;;;;8.75;6.50;;;;;12.18;61.55;100593.00;5017462;28;45254;-65
2023/03/22 10:16:12;;;;;;;;;10.75;6.25;;;;;12.19;61.09;100594.75;5016103;28;45302;-65
2023/03/22 10:18:44;;;;;;;;;10.00;9.00;;;;;12.17;61.43;100570.19;5017476;28;45219;-65
2023/03/22 10:21:15;;;;;;;;;9.00;7.25;;;;;12.15;61.72;100551.78;5017345;28;45320;-65
2023/03/22 10:23:46;;;;;;;;;6.50;5.50;;;;;12.18;61.86;100569.28;5015923;28;45292;-65
2023/03/22 10:26:20;;;;;;;;;11.00;8.00;;;;;12.19;61.83;100563.13;4999458;28;45942;-65
2023/03/22 10:28:55;;;;;;;;;9.25;8.25;;;;;12.22;61.57;100570.09;5017097;28;45321;-65
2023/03/22 10:31:22;;;;;;;;;7.50;7.25;;;;;12.19;61.69;100571.03;5017207;28;45370;-64
2023/03/22 10:33:50;;;;;;;;;5.50;5.50;;;;;12.26;62.04;100575.22;5017377;28;45446;-64
2023/03/22 10:36:21;;;;;;;;;9.50;8.75;;;;;12.22;61.80;100564.81;5017187;28;45362;-64
2023/03/22 10:38:51;;;;;;;;;8.25;6.75;;;;;12.22;61.61;100560.41;5032108;28;46313;-65
2023/03/22 10:41:19;;;;;;;;;7.00;7.00;;;;;12.20;62.22;100564.88;5017069;28;45358;-65
2023/03/22 10:43:50;;;;;;;;;11.75;9.75;;;;;12.27;61.98;100576.13;4992124;28;45222;-65
2023/03/22 10:46:23;;;;;;;;;6.75;6.75;;;;;12.28;62.24;100570.81;5017162;28;45333;-65
2023/03/22 10:48:52;;;;;;;;;7.00;5.75;;;;;12.34;62.02;100573.28;5016629;28;46279;-64
2023/03/22 10:51:33;;;;;;;;;11.50;11.25;;;;;12.38;62.29;100573.19;5016193;28;45309;-65
2023/03/22 10:54:00;;;;;;;;;9.75;9.00;;;;;12.42;62.24;100569.63;5016810;28;45415;-64
2023/03/22 10:56:25;;;;;;;;;13.25;8.50;;;;;12.41;62.17;100571.38;4997048;28;45306;-64
2023/03/22 10:58:53;;;;;;;;;9.25;9.25;;;;;12.48;62.17;100587.91;5015040;28;46127;-62
2023/03/22 11:01:35;;;;;;;;;12.00;11.00;;;;;12.51;62.24;100577.28;5017164;28;45440;-64
2023/03/22 11:04:13;;;;;;;;;8.75;8.00;;;;;12.51;62.36;100559.72;5016966;28;45314;-63
2023/03/22 11:06:47;;;;;;;;;12.00;10.50;;;;;12.50;62.08;100543.91;5006375;28;45418;-63
2023/03/22 11:09:22;;;;;;;;;15.00;13.50;;;;;12.52;62.42;100539.47;4994824;28;45326;-63
2023/03/22 11:12:01;;;;;;;;;7.75;6.50;;;;;12.56;62.22;100538.50;4995731;28;45415;-63
2023/03/22 11:14:36;;;;;;;;;10.00;7.25;;;;;12.55;62.18;100535.91;4997349;28;45476;-64
2023/03/22 11:17:16;;;;;;;;;6.00;6.00;;;;;12.59;62.30;100529.63;4995826;28;45820;-64
2023/03/22 11:19:51;;;;;;;;;14.25;8.25;;;;;12.59;62.31;100522.63;4995264;28;46610;-64
2023/03/22 11:22:32;;;;;;;;;7.25;6.25;;;;;12.65;62.15;100530.38;5022267;28;45512;-64
2023/03/22 11:24:58;;;;;;;;;9.25;8.00;;;;;12.70;62.20;100532.00;5015927;28;45303;-63
2023/03/22 11:27:30;;;;;;;;;8.25;7.50;;;;;12.68;61.94;100548.72;5015631;28;45596;-63
2023/03/22 11:30:15;;;;;;;;;9.75;7.75;;;;;12.78;62.33;100540.56;5015740;28;45369;-63